Terminal Aerodrome Forecast
Issued by NWS Cleveland, OH

Home | Current Version | Previous Version | Text Only | Print | Product List | Glossary Off
Versions: 1 2 3 4 5 6 7 8 9 10 11 12 13 14 15 16 17 18 19 20 21 22 23 24 25 26 27 28

000
FTUS41 KCLE 240254 AAA
TAFCLE
TAF AMD
KCLE 240254Z 2403/2506 12005KT P6SM OVC200
     FM241700 10009KT P6SM OVC035
     FM241900 10010KT P6SM OVC025
     FM242100 10011KT P6SM -SHRA OVC020
     FM250100 11011KT P6SM -SHRA OVC015
     FM250400 13011KT P6SM -SHRA OVC007=

USA.gov is the U.S. government's official web portal to all federal, state and local government web resources and services.